createdAt,value
2023-05-14T00:01:55.614Z,3.42
2023-05-14T00:04:25.286Z,3.25
2023-05-14T00:06:53.399Z,3.90
2023-05-14T00:09:21.681Z,3.47
2023-05-14T00:11:49.678Z,3.25
2023-05-14T00:14:17.919Z,2.70
2023-05-14T00:16:45.934Z,3.08
2023-05-14T00:19:14.386Z,7.38
2023-05-14T00:21:43.896Z,2.73
2023-05-14T00:24:12.161Z,3.13
2023-05-14T00:26:40.176Z,3.35
2023-05-14T00:29:08.597Z,4.07
2023-05-14T00:31:37.023Z,2.83
2023-05-14T00:34:05.840Z,3.70
2023-05-14T00:36:33.889Z,3.60
2023-05-14T00:39:03.744Z,3.50
2023-05-14T00:41:31.814Z,4.60
2023-05-14T00:44:00.170Z,5.25
2023-05-14T00:46:28.498Z,3.60
2023-05-14T00:48:57.032Z,3.40
2023-05-14T00:51:25.835Z,3.75
2023-05-14T00:53:54.278Z,3.72
2023-05-14T00:56:23.841Z,3.70
2023-05-14T00:58:52.244Z,3.67
2023-05-14T01:01:20.310Z,5.90
2023-05-14T01:03:49.999Z,4.10
2023-05-14T01:06:24.958Z,4.95
2023-05-14T01:09:00.577Z,4.50
2023-05-14T01:11:32.290Z,5.30
2023-05-14T01:14:04.776Z,3.38
2023-05-14T01:16:34.942Z,5.22
2023-05-14T01:19:03.804Z,4.20
2023-05-14T01:21:40.750Z,4.28
2023-05-14T01:24:09.461Z,4.10
2023-05-14T01:26:37.734Z,3.83
2023-05-14T01:29:12.764Z,3.78
2023-05-14T01:31:41.861Z,3.40
2023-05-14T01:34:10.452Z,4.30
2023-05-14T01:36:40.109Z,4.30
2023-05-14T01:39:09.951Z,4.15
2023-05-14T01:41:42.997Z,3.75
2023-05-14T01:44:11.632Z,4.30
2023-05-14T01:46:39.800Z,4.75
2023-05-14T01:49:08.230Z,3.40
2023-05-14T01:51:36.421Z,4.38
2023-05-14T01:54:06.236Z,4.72
2023-05-14T01:56:34.281Z,4.18
2023-05-14T01:59:02.821Z,5.28
2023-05-14T02:01:31.690Z,4.80
2023-05-14T02:04:01.020Z,5.28
2023-05-14T02:06:29.138Z,4.25
2023-05-14T02:08:57.627Z,5.50
2023-05-14T02:11:27.199Z,4.90
2023-05-14T02:13:55.493Z,5.30
2023-05-14T02:16:23.604Z,6.68
2023-05-14T02:18:53.262Z,5.13
2023-05-14T02:21:21.297Z,4.15
2023-05-14T02:23:50.142Z,5.53
2023-05-14T02:26:18.204Z,5.13
2023-05-14T02:28:47.856Z,3.78
2023-05-14T02:31:17.586Z,5.00
2023-05-14T02:33:46.055Z,4.95
2023-05-14T02:36:14.229Z,5.65
2023-05-14T02:38:42.503Z,4.70
2023-05-14T02:41:10.483Z,3.85
2023-05-14T02:43:39.401Z,5.10
2023-05-14T02:46:08.880Z,4.22
2023-05-14T02:48:37.136Z,5.03
2023-05-14T02:51:05.214Z,4.97
2023-05-14T02:53:33.507Z,4.75
2023-05-14T02:56:01.508Z,5.15
2023-05-14T02:58:29.835Z,4.50
2023-05-14T03:00:57.886Z,4.68
2023-05-14T03:03:28.106Z,5.00
2023-05-14T03:05:56.664Z,4.68
2023-05-14T03:08:24.988Z,4.30
2023-05-14T03:10:53.018Z,5.22
2023-05-14T03:13:21.270Z,5.30
2023-05-14T03:15:49.386Z,8.33
2023-05-14T03:18:17.658Z,5.40
2023-05-14T03:20:48.751Z,5.70
2023-05-14T03:23:17.046Z,5.38
2023-05-14T03:25:45.054Z,6.20
2023-05-14T03:28:13.264Z,5.57
2023-05-14T03:30:41.448Z,5.97
2023-05-14T03:33:09.945Z,7.05
2023-05-14T03:35:38.107Z,5.40
2023-05-14T03:38:07.729Z,6.07
2023-05-14T03:40:36.072Z,4.43
2023-05-14T03:43:04.434Z,5.70
2023-05-14T03:45:32.924Z,5.82
2023-05-14T03:48:01.139Z,6.13
2023-05-14T03:50:29.914Z,5.70
2023-05-14T03:52:58.253Z,5.40
2023-05-14T03:55:27.643Z,5.28
2023-05-14T03:57:55.906Z,6.80
2023-05-14T04:00:24.692Z,6.97
2023-05-14T04:02:55.530Z,6.05
2023-05-14T04:05:25.184Z,5.17
2023-05-14T04:07:53.488Z,6.00
2023-05-14T04:10:22.151Z,6.57
2023-05-14T04:12:52.082Z,7.18
2023-05-14T04:15:20.283Z,6.78
2023-05-14T04:17:48.670Z,6.50
2023-05-14T04:20:16.847Z,8.07
2023-05-14T04:22:45.582Z,6.45
2023-05-14T04:25:13.576Z,5.22
2023-05-14T04:27:41.902Z,8.05
2023-05-14T04:30:12.471Z,8.87
2023-05-14T04:32:40.769Z,6.40
2023-05-14T04:35:10.172Z,7.18
2023-05-14T04:37:38.513Z,7.85
2023-05-14T04:40:08.895Z,7.72
2023-05-14T04:42:37.128Z,6.87
2023-05-14T04:45:06.174Z,6.28
2023-05-14T04:47:35.944Z,6.43
2023-05-14T04:50:04.209Z,6.22
2023-05-14T04:52:32.423Z,6.40
2023-05-14T04:55:00.476Z,6.77
2023-05-14T04:57:28.847Z,6.57
2023-05-14T04:59:56.872Z,6.75
2023-05-14T05:02:25.136Z,6.53
2023-05-14T05:04:54.550Z,6.95
2023-05-14T05:07:22.784Z,6.73
2023-05-14T05:09:51.025Z,6.00
2023-05-14T05:12:19.308Z,8.80
2023-05-14T05:14:47.268Z,6.78
2023-05-14T05:17:15.709Z,5.70
2023-05-14T05:19:44.630Z,7.63
2023-05-14T05:22:14.364Z,7.10
2023-05-14T05:24:42.404Z,6.97
2023-05-14T05:27:10.667Z,6.50
2023-05-14T05:29:38.728Z,7.47
2023-05-14T05:32:08.218Z,6.10
2023-05-14T05:34:36.731Z,5.63
2023-05-14T05:37:06.050Z,7.03
2023-05-14T05:39:35.627Z,7.40
2023-05-14T05:42:04.293Z,6.20
2023-05-14T05:44:32.257Z,5.13
2023-05-14T05:47:00.628Z,5.65
2023-05-14T05:49:28.798Z,6.20
2023-05-14T05:51:57.508Z,6.40
2023-05-14T05:54:25.757Z,5.70
2023-05-14T05:56:55.512Z,5.90
2023-05-14T05:59:23.456Z,6.35
2023-05-14T06:01:51.759Z,6.03
2023-05-14T06:04:20.168Z,6.38
2023-05-14T06:06:48.373Z,5.63
2023-05-14T06:09:16.504Z,7.07
2023-05-14T06:11:44.739Z,7.15
2023-05-14T06:14:14.120Z,6.80
2023-05-14T06:16:42.506Z,7.95
2023-05-14T06:19:11.133Z,5.32
2023-05-14T06:21:39.578Z,5.80
2023-05-14T06:24:08.096Z,6.57
2023-05-14T06:26:36.422Z,6.85
2023-05-14T06:29:04.398Z,6.72
2023-05-14T06:31:34.040Z,6.60
2023-05-14T06:34:02.050Z,8.93
2023-05-14T06:36:30.318Z,8.32
2023-05-14T06:38:58.458Z,6.97
2023-05-14T06:41:26.844Z,5.72
2023-05-14T06:43:55.207Z,6.55
2023-05-14T06:46:23.537Z,5.50
2023-05-14T06:48:52.994Z,8.60
2023-05-14T06:51:21.345Z,5.95
2023-05-14T06:53:49.391Z,5.60
2023-05-14T06:56:17.664Z,6.63
2023-05-14T06:58:45.629Z,5.10
2023-05-14T07:01:14.135Z,5.53
2023-05-14T07:03:42.166Z,7.07
2023-05-14T07:06:13.561Z,6.15
2023-05-14T07:08:42.183Z,6.20
2023-05-14T07:11:10.404Z,6.47
2023-05-14T07:13:38.443Z,9.32
2023-05-14T07:16:08.802Z,9.40
2023-05-14T07:18:36.804Z,6.72
2023-05-14T07:21:06.494Z,5.68
2023-05-14T07:23:36.459Z,6.23
2023-05-14T07:26:05.604Z,6.22
2023-05-14T07:28:33.886Z,6.57
2023-05-14T07:31:02.192Z,6.57
2023-05-14T07:33:30.250Z,6.40
2023-05-14T07:35:58.545Z,6.57
2023-05-14T07:38:26.683Z,6.45
2023-05-14T07:40:56.419Z,5.72
2023-05-14T07:43:24.427Z,5.82
2023-05-14T07:45:52.899Z,6.75
2023-05-14T07:48:21.014Z,6.67
2023-05-14T07:50:49.788Z,7.53
2023-05-14T07:53:17.909Z,5.28
2023-05-14T07:55:48.046Z,5.70
2023-05-14T07:58:17.447Z,5.07
2023-05-14T08:00:45.783Z,5.50
2023-05-14T08:03:13.997Z,5.18
2023-05-14T08:05:42.249Z,5.15
2023-05-14T08:08:10.281Z,5.57
2023-05-14T08:10:39.003Z,5.13
2023-05-14T08:13:07.385Z,4.83
2023-05-14T08:15:37.024Z,6.55
2023-05-14T08:18:05.209Z,4.55
2023-05-14T08:20:33.526Z,5.32
2023-05-14T08:23:01.602Z,4.82
2023-05-14T08:25:29.976Z,5.27
2023-05-14T08:27:59.644Z,5.80
2023-05-14T08:30:28.338Z,4.70
2023-05-14T08:32:59.031Z,5.90
2023-05-14T08:35:27.357Z,6.22
2023-05-14T08:37:56.821Z,4.47
2023-05-14T08:40:25.400Z,5.30
2023-05-14T08:42:54.038Z,5.25
2023-05-14T08:45:25.924Z,5.43
2023-05-14T08:47:54.282Z,5.38
2023-05-14T08:50:24.298Z,4.53
2023-05-14T08:52:52.710Z,5.53
2023-05-14T08:55:21.120Z,6.50
2023-05-14T08:57:49.614Z,6.20
2023-05-14T09:00:18.601Z,5.15
2023-05-14T09:02:47.615Z,5.33
2023-05-14T09:05:16.312Z,5.28
2023-05-14T09:07:45.854Z,5.45
2023-05-14T09:10:15.340Z,4.55
2023-05-14T09:12:43.390Z,3.92
2023-05-14T09:15:12.000Z,6.00
2023-05-14T09:17:40.031Z,5.93
2023-05-14T09:20:10.470Z,5.90
2023-05-14T09:22:39.887Z,4.53
2023-05-14T09:25:12.133Z,4.28
2023-05-14T09:27:40.225Z,4.13
2023-05-14T09:30:10.237Z,5.68
2023-05-14T09:32:39.738Z,4.90
2023-05-14T09:35:17.454Z,4.05
2023-05-14T09:37:47.301Z,4.63
2023-05-14T09:40:19.042Z,5.03
2023-05-14T09:42:48.102Z,4.68
2023-05-14T09:45:16.582Z,4.10
2023-05-14T09:47:45.098Z,4.25
2023-05-14T09:50:13.815Z,5.90
2023-05-14T09:52:41.834Z,5.00
2023-05-14T09:55:10.577Z,4.70
2023-05-14T09:57:40.636Z,4.65
2023-05-14T10:00:10.321Z,5.00
2023-05-14T10:02:40.892Z,4.30
2023-05-14T10:05:10.161Z,4.67
2023-05-14T10:07:42.574Z,4.88
2023-05-14T10:10:15.025Z,4.90
2023-05-14T10:12:46.783Z,4.20
2023-05-14T10:15:18.726Z,5.75
2023-05-14T10:17:50.653Z,3.27
2023-05-14T10:20:19.019Z,4.18
2023-05-14T10:22:47.343Z,4.82
2023-05-14T10:25:15.781Z,4.22
2023-05-14T10:27:45.282Z,4.40
2023-05-14T10:30:14.129Z,4.50
2023-05-14T10:32:44.012Z,3.38
2023-05-14T10:35:20.357Z,4.80
2023-05-14T10:37:48.690Z,23.38
2023-05-14T10:40:18.464Z,34.17
2023-05-14T10:42:48.115Z,6.87
2023-05-14T10:45:17.528Z,39.35
2023-05-14T10:47:47.479Z,15.52
2023-05-14T10:50:17.384Z,8.50
2023-05-14T10:52:46.171Z,4.65
2023-05-14T10:55:15.646Z,5.20
2023-05-14T10:57:48.179Z,4.82
2023-05-14T11:00:17.406Z,4.28
2023-05-14T11:02:46.729Z,4.93
2023-05-14T11:05:17.521Z,3.72
2023-05-14T11:07:46.822Z,3.63
2023-05-14T11:10:16.445Z,5.18
2023-05-14T11:12:45.612Z,4.70
2023-05-14T11:15:16.816Z,3.88
2023-05-14T11:17:46.129Z,3.67
2023-05-14T11:20:14.780Z,4.17
2023-05-14T11:22:43.615Z,3.72
2023-05-14T11:25:14.289Z,10.80
2023-05-14T11:27:44.042Z,16.60
2023-05-14T11:30:18.262Z,15.07
2023-05-14T11:32:48.340Z,24.57
2023-05-14T11:35:17.018Z,7.03
2023-05-14T11:37:51.035Z,5.07
2023-05-14T11:40:19.962Z,4.45
2023-05-14T11:42:47.998Z,3.88
2023-05-14T11:45:26.060Z,4.00
2023-05-14T11:47:54.736Z,4.15
2023-05-14T11:50:23.508Z,3.72
2023-05-14T11:52:51.891Z,4.47
2023-05-14T11:55:20.888Z,5.50
2023-05-14T11:57:49.099Z,4.13
2023-05-14T12:00:22.111Z,4.03
2023-05-14T12:02:50.748Z,3.97
2023-05-14T12:05:19.969Z,3.53
2023-05-14T12:07:48.296Z,4.28
2023-05-14T12:10:16.570Z,4.27
2023-05-14T12:12:46.453Z,4.32
2023-05-14T12:15:16.296Z,4.38
2023-05-14T12:17:50.730Z,4.15
2023-05-14T12:20:19.090Z,3.15
2023-05-14T12:22:47.153Z,3.80
2023-05-14T12:25:15.554Z,3.63
2023-05-14T12:27:45.858Z,5.32
2023-05-14T12:32:48.823Z,5.40
2023-05-14T12:35:17.483Z,3.57
2023-05-14T12:37:45.461Z,4.95
2023-05-14T12:40:13.949Z,3.95
2023-05-14T12:42:42.072Z,3.50
2023-05-14T12:45:11.079Z,3.80
2023-05-14T12:47:39.140Z,3.40
2023-05-14T12:50:09.860Z,4.53
2023-05-14T12:52:39.715Z,3.00
2023-05-14T12:55:09.944Z,4.05
2023-05-14T12:57:38.849Z,3.58
2023-05-14T13:00:12.959Z,4.57
2023-05-14T13:02:43.660Z,3.47
2023-05-14T13:05:13.901Z,4.00
2023-05-14T13:07:42.215Z,4.55
2023-05-14T13:10:11.336Z,4.72
2023-05-14T13:12:39.636Z,3.60
2023-05-14T13:15:09.051Z,4.07
2023-05-14T13:17:37.285Z,4.03
2023-05-14T13:20:06.654Z,3.83
2023-05-14T13:22:36.070Z,4.03
2023-05-14T13:25:04.892Z,3.00
2023-05-14T13:27:33.627Z,4.15
2023-05-14T13:30:01.844Z,3.70
2023-05-14T13:32:29.989Z,3.38
2023-05-14T13:34:58.289Z,5.75
2023-05-14T13:37:26.791Z,4.50
2023-05-14T13:39:56.471Z,4.55
2023-05-14T13:42:24.573Z,4.18
2023-05-14T13:44:52.799Z,3.75
2023-05-14T13:47:20.860Z,3.75
2023-05-14T13:49:49.096Z,4.57
2023-05-14T13:52:17.145Z,3.95
2023-05-14T13:54:45.487Z,4.70
2023-05-14T13:57:14.918Z,3.92
2023-05-14T13:59:43.216Z,4.72
2023-05-14T14:02:11.257Z,4.27
2023-05-14T14:04:39.498Z,3.45
2023-05-14T14:07:08.216Z,3.05
2023-05-14T14:09:36.889Z,5.00
2023-05-14T14:12:05.537Z,2.97
2023-05-14T14:14:35.169Z,3.97
2023-05-14T14:17:03.166Z,3.33
2023-05-14T14:19:31.389Z,4.50
2023-05-14T14:21:59.406Z,3.53
2023-05-14T14:24:27.724Z,3.30
2023-05-14T14:26:55.875Z,3.57
2023-05-14T14:29:24.145Z,4.25
2023-05-14T14:31:53.619Z,4.05
2023-05-14T14:34:21.864Z,2.78
2023-05-14T14:36:49.947Z,3.33
2023-05-14T14:39:18.216Z,3.33
2023-05-14T14:41:47.506Z,3.45
2023-05-14T14:44:15.779Z,3.28
2023-05-14T14:46:43.827Z,3.08
2023-05-14T14:49:13.424Z,3.50
2023-05-14T14:51:41.712Z,4.37
2023-05-14T14:54:09.942Z,2.90
2023-05-14T14:56:38.129Z,3.47
2023-05-14T14:59:06.413Z,3.08
2023-05-14T15:01:34.534Z,2.67
2023-05-14T15:04:02.993Z,4.63
2023-05-14T15:06:32.274Z,3.03
2023-05-14T15:09:00.648Z,2.88
2023-05-14T15:11:28.824Z,2.88
2023-05-14T15:13:57.190Z,2.85
2023-05-14T15:16:25.311Z,2.93
2023-05-14T15:18:53.731Z,2.55
2023-05-14T15:21:22.166Z,2.42
2023-05-14T15:23:51.732Z,2.45
2023-05-14T15:26:19.813Z,3.00
2023-05-14T15:28:48.045Z,3.03
2023-05-14T15:31:16.327Z,2.92
2023-05-14T15:33:44.631Z,2.35
2023-05-14T15:36:12.892Z,3.40
2023-05-14T15:38:42.145Z,2.72
2023-05-14T15:41:11.505Z,2.87
2023-05-14T15:43:39.830Z,2.55
2023-05-14T15:46:07.884Z,2.60
2023-05-14T15:48:36.785Z,2.72
2023-05-14T15:51:04.908Z,1.85
2023-05-14T15:53:33.217Z,3.20
2023-05-14T15:56:01.275Z,2.92
2023-05-14T15:58:31.047Z,2.70
2023-05-14T16:00:59.097Z,2.47
2023-05-14T16:03:27.415Z,3.35
2023-05-14T16:05:56.026Z,3.00
2023-05-14T16:08:24.406Z,4.40
2023-05-14T16:10:52.433Z,3.15
2023-05-14T16:13:20.690Z,4.38
2023-05-14T16:15:51.063Z,2.95
2023-05-14T16:18:19.540Z,5.43
2023-05-14T16:20:47.649Z,3.75
2023-05-14T16:23:15.920Z,3.60
2023-05-14T16:25:43.960Z,3.45
2023-05-14T16:28:12.324Z,3.35
2023-05-14T16:30:40.410Z,3.00
2023-05-14T16:33:10.013Z,3.80
2023-05-14T16:35:39.272Z,3.15
2023-05-14T16:38:07.499Z,2.67
2023-05-14T16:40:35.735Z,2.15
2023-05-14T16:43:04.157Z,3.60
2023-05-14T16:45:34.708Z,4.30
2023-05-14T16:48:03.037Z,3.53
2023-05-14T16:50:32.562Z,2.78
2023-05-14T16:53:00.827Z,2.67
2023-05-14T16:55:28.873Z,3.17
2023-05-14T16:57:57.234Z,2.65
2023-05-14T17:00:25.427Z,4.28
2023-05-14T17:02:54.114Z,2.97
2023-05-14T17:05:22.325Z,2.78
2023-05-14T17:07:52.012Z,4.33
2023-05-14T17:10:20.039Z,3.08
2023-05-14T17:12:48.372Z,2.38
2023-05-14T17:15:16.422Z,3.25
2023-05-14T17:17:44.883Z,3.10
2023-05-14T17:20:15.312Z,6.20
2023-05-14T17:22:44.944Z,7.57
2023-05-14T17:25:14.544Z,12.63
2023-05-14T17:27:42.564Z,20.73
2023-05-14T17:30:11.446Z,4.88
2023-05-14T17:32:39.602Z,3.27
2023-05-14T17:35:09.606Z,3.08
2023-05-14T17:37:37.651Z,2.88
2023-05-14T17:40:07.043Z,2.92
2023-05-14T17:42:36.657Z,2.67
2023-05-14T17:45:05.833Z,3.07
2023-05-14T17:47:34.070Z,2.95
2023-05-14T17:50:02.404Z,2.70
2023-05-14T17:52:30.662Z,2.13
2023-05-14T17:54:58.964Z,2.72
2023-05-14T17:57:27.157Z,2.83
2023-05-14T17:59:56.737Z,3.05
2023-05-14T18:02:24.953Z,2.38
2023-05-14T18:04:53.299Z,2.60
2023-05-14T18:07:22.492Z,2.53
2023-05-14T18:09:50.763Z,3.37
2023-05-14T18:12:18.770Z,3.38
2023-05-14T18:14:47.030Z,1.77
2023-05-14T18:17:17.154Z,2.42
2023-05-14T18:19:45.529Z,2.45
2023-05-14T18:22:13.632Z,3.30
2023-05-14T18:24:44.037Z,4.28
2023-05-14T18:27:12.339Z,3.15
2023-05-14T18:29:40.595Z,2.50
2023-05-14T18:32:09.097Z,2.63
2023-05-14T18:34:38.759Z,2.77
2023-05-14T18:37:07.082Z,3.17
2023-05-14T18:39:35.443Z,2.75
2023-05-14T18:42:03.430Z,3.55
2023-05-14T18:44:31.813Z,98.00
2023-05-14T18:47:00.456Z,126.33
2023-05-14T18:49:28.754Z,112.75
2023-05-14T18:51:58.162Z,25.33
2023-05-14T18:54:26.461Z,18.90
2023-05-14T18:56:54.507Z,18.60
2023-05-14T18:59:22.859Z,25.07
2023-05-14T19:01:51.259Z,6.70
2023-05-14T19:04:19.599Z,3.28
2023-05-14T19:06:47.616Z,3.85
2023-05-14T19:09:20.903Z,2.08
2023-05-14T19:11:49.084Z,3.30
2023-05-14T19:14:17.376Z,2.80
2023-05-14T19:16:45.455Z,2.85
2023-05-14T19:19:13.914Z,1.83
2023-05-14T19:21:41.985Z,2.00
2023-05-14T19:24:10.283Z,2.03
2023-05-14T19:26:39.745Z,1.73
2023-05-14T19:29:08.047Z,1.80
2023-05-14T19:31:36.122Z,2.25
2023-05-14T19:34:04.453Z,2.88
2023-05-14T19:36:32.580Z,1.80
2023-05-14T19:39:00.923Z,2.25
2023-05-14T19:41:29.194Z,1.90
2023-05-14T19:43:58.791Z,1.88
2023-05-14T19:46:27.331Z,2.88
2023-05-14T19:48:55.573Z,3.70
2023-05-14T19:51:23.626Z,4.05
2023-05-14T19:53:51.910Z,2.47
2023-05-14T19:56:20.067Z,2.75
2023-05-14T19:58:48.349Z,4.10
2023-05-14T20:01:17.797Z,3.67
2023-05-14T20:03:46.083Z,3.50
2023-05-14T20:06:14.390Z,3.83
2023-05-14T20:08:42.769Z,2.33
2023-05-14T20:11:10.914Z,4.75
2023-05-14T20:13:39.257Z,3.33
2023-05-14T20:16:07.444Z,3.65
2023-05-14T20:18:37.110Z,3.65
2023-05-14T20:21:05.531Z,3.08
2023-05-14T20:23:33.779Z,3.42
2023-05-14T20:26:02.316Z,2.90
2023-05-14T20:28:30.626Z,3.00
2023-05-14T20:31:00.166Z,1.92
2023-05-14T20:33:29.170Z,2.28
2023-05-14T20:35:58.668Z,2.83
2023-05-14T20:38:29.302Z,2.97
2023-05-14T20:40:57.504Z,2.67
2023-05-14T20:43:27.290Z,2.25
2023-05-14T20:45:57.648Z,3.72
2023-05-14T20:48:26.155Z,3.35
2023-05-14T20:50:54.186Z,2.80
2023-05-14T20:53:25.236Z,2.55
2023-05-14T20:55:53.280Z,3.10
2023-05-14T20:58:21.557Z,2.47
2023-05-14T21:00:49.605Z,2.58
2023-05-14T21:03:18.018Z,3.47
2023-05-14T21:05:46.143Z,2.67
2023-05-14T21:08:14.401Z,2.70
2023-05-14T21:10:43.757Z,2.60
2023-05-14T21:13:11.943Z,2.90
2023-05-14T21:15:39.966Z,3.13
2023-05-14T21:18:08.330Z,2.70
2023-05-14T21:20:36.648Z,3.50
2023-05-14T21:23:04.874Z,5.28
2023-05-14T21:25:32.951Z,3.45
2023-05-14T21:28:02.534Z,3.50
2023-05-14T21:30:30.598Z,2.55
2023-05-14T21:32:58.909Z,4.72
2023-05-14T21:35:27.162Z,4.57
2023-05-14T21:37:55.616Z,2.15
2023-05-14T21:40:23.592Z,3.50
2023-05-14T21:42:51.786Z,3.03
2023-05-14T21:45:23.400Z,2.35
2023-05-14T21:47:52.114Z,2.75
2023-05-14T21:50:20.421Z,3.28
2023-05-14T21:52:48.652Z,2.33
2023-05-14T21:55:16.849Z,2.33
2023-05-14T21:57:45.124Z,3.13
2023-05-14T22:00:18.448Z,2.45
2023-05-14T22:02:48.134Z,2.67
2023-05-14T22:05:16.218Z,4.43
2023-05-14T22:07:44.520Z,2.55
2023-05-14T22:10:13.801Z,2.85
2023-05-14T22:12:42.952Z,3.10
2023-05-14T22:15:11.929Z,2.63
2023-05-14T22:17:40.301Z,2.30
2023-05-14T22:20:11.180Z,2.28
2023-05-14T22:22:39.595Z,2.47
2023-05-14T22:25:08.266Z,3.47
2023-05-14T22:27:36.572Z,4.00
2023-05-14T22:30:05.321Z,2.60
2023-05-14T22:32:33.737Z,2.85
2023-05-14T22:35:01.818Z,2.90
2023-05-14T22:37:31.600Z,3.35
2023-05-14T22:39:59.556Z,3.30
2023-05-14T22:42:28.366Z,4.33
2023-05-14T22:44:56.299Z,2.58
2023-05-14T22:47:24.798Z,2.42
2023-05-14T22:49:52.915Z,3.40
2023-05-14T22:52:21.216Z,4.03
2023-05-14T22:54:51.011Z,4.63
2023-05-14T22:57:19.308Z,3.75
2023-05-14T22:59:47.355Z,3.55
2023-05-14T23:02:15.799Z,5.80
2023-05-14T23:04:44.269Z,4.53
2023-05-14T23:07:12.541Z,3.77
2023-05-14T23:09:40.494Z,3.72
2023-05-14T23:12:10.665Z,2.95
2023-05-14T23:14:38.680Z,2.45
2023-05-14T23:17:06.926Z,4.47
2023-05-14T23:19:34.977Z,2.67
2023-05-14T23:22:03.328Z,2.50
2023-05-14T23:24:31.334Z,2.25
2023-05-14T23:26:59.533Z,3.63
2023-05-14T23:29:28.849Z,3.50
2023-05-14T23:31:57.264Z,2.63
